createdAt,value
2022-07-30T00:02:12.566Z,21.36
2022-07-30T00:04:40.383Z,21.37
2022-07-30T00:07:08.364Z,21.38
2022-07-30T00:09:36.423Z,21.35
2022-07-30T00:12:05.478Z,21.31
2022-07-30T00:14:35.124Z,21.31
2022-07-30T00:17:04.229Z,21.31
2022-07-30T00:19:32.371Z,21.32
2022-07-30T00:22:00.319Z,21.33
2022-07-30T00:24:28.291Z,21.30
2022-07-30T00:26:56.079Z,21.30
2022-07-30T00:29:23.843Z,21.32
2022-07-30T00:31:51.857Z,21.33
2022-07-30T00:34:19.657Z,21.35
2022-07-30T00:36:47.932Z,21.36
2022-07-30T00:39:15.795Z,21.39
2022-07-30T00:42:02.188Z,21.43
2022-07-30T00:44:30.388Z,21.42
2022-07-30T00:46:58.803Z,21.40
2022-07-30T00:49:27.375Z,21.36
2022-07-30T00:51:55.537Z,21.28
2022-07-30T00:54:23.565Z,21.23
2022-07-30T00:56:51.401Z,21.20
2022-07-30T00:59:19.439Z,21.17
2022-07-30T01:01:47.584Z,21.13
2022-07-30T01:04:15.865Z,21.12
2022-07-30T01:06:43.831Z,21.09
2022-07-30T01:09:11.625Z,21.07
2022-07-30T01:11:40.894Z,21.05
2022-07-30T01:14:09.447Z,21.03
2022-07-30T01:16:38.779Z,20.99
2022-07-30T01:19:30.727Z,20.97
2022-07-30T01:22:07.365Z,20.92
2022-07-30T01:24:43.558Z,20.89
2022-07-30T01:27:13.655Z,20.89
2022-07-30T01:29:45.474Z,20.87
2022-07-30T01:32:13.898Z,20.89
2022-07-30T01:34:42.891Z,20.94
2022-07-30T01:37:11.762Z,20.97
2022-07-30T01:39:40.054Z,20.97
2022-07-30T01:42:09.304Z,20.94
2022-07-30T01:44:38.183Z,20.91
2022-07-30T01:47:06.634Z,20.88
2022-07-30T01:49:35.399Z,20.88
2022-07-30T01:52:04.276Z,20.86
2022-07-30T01:54:34.596Z,20.83
2022-07-30T01:57:03.125Z,20.79
2022-07-30T01:59:33.925Z,20.77
2022-07-30T02:02:02.224Z,20.75
2022-07-30T02:04:30.169Z,20.73
2022-07-30T02:07:06.760Z,20.72
2022-07-30T02:09:38.111Z,20.70
2022-07-30T02:12:29.400Z,20.67
2022-07-30T02:15:07.424Z,20.66
2022-07-30T02:17:42.976Z,20.61
2022-07-30T02:20:14.739Z,20.56
2022-07-30T02:22:45.271Z,20.60
2022-07-30T02:25:15.506Z,20.66
2022-07-30T02:27:45.269Z,20.70
2022-07-30T02:30:13.544Z,20.71
2022-07-30T02:32:42.591Z,20.71
2022-07-30T02:35:18.946Z,20.68
2022-07-30T02:37:48.621Z,20.61
2022-07-30T02:40:18.335Z,20.57
2022-07-30T02:42:47.221Z,20.54
2022-07-30T02:45:20.776Z,20.51
2022-07-30T02:47:51.291Z,20.48
2022-07-30T02:50:20.146Z,20.45
2022-07-30T02:52:49.601Z,20.45
2022-07-30T02:55:18.655Z,20.45
2022-07-30T02:57:47.331Z,20.47
2022-07-30T03:00:15.502Z,20.48
2022-07-30T03:02:45.296Z,20.49
2022-07-30T03:05:14.989Z,20.48
2022-07-30T03:07:43.422Z,20.44
2022-07-30T03:10:11.548Z,20.42
2022-07-30T03:12:40.794Z,20.41
2022-07-30T03:15:09.000Z,20.40
2022-07-30T03:17:43.213Z,20.41
2022-07-30T03:20:12.847Z,20.38
2022-07-30T03:22:43.719Z,20.36
2022-07-30T03:25:14.345Z,20.34
2022-07-30T03:27:43.179Z,20.30
2022-07-30T03:30:11.195Z,20.30
2022-07-30T03:32:39.982Z,20.32
2022-07-30T03:35:16.906Z,20.34
2022-07-30T03:37:47.252Z,20.38
2022-07-30T03:40:15.542Z,20.39
2022-07-30T03:42:45.541Z,20.38
2022-07-30T03:45:15.105Z,20.41
2022-07-30T03:47:43.749Z,20.49
2022-07-30T03:50:12.876Z,20.55
2022-07-30T03:52:41.754Z,20.63
2022-07-30T03:55:12.262Z,20.73
2022-07-30T03:57:49.119Z,20.86
2022-07-30T04:00:18.349Z,20.99
2022-07-30T04:02:50.042Z,21.14
2022-07-30T04:05:28.746Z,21.29
2022-07-30T04:08:09.251Z,21.49
2022-07-30T04:10:37.245Z,21.74
2022-07-30T04:13:21.237Z,22.40
2022-07-30T04:16:37.978Z,22.96
2022-07-30T04:18:55.770Z,23.33
2022-07-30T04:21:25.447Z,23.75
2022-07-30T04:24:02.425Z,24.28
2022-07-30T04:26:34.597Z,24.60
2022-07-30T04:29:04.578Z,24.49
2022-07-30T04:31:40.406Z,24.32
2022-07-30T04:34:28.394Z,24.09
2022-07-30T04:36:56.447Z,23.98
2022-07-30T04:39:24.538Z,23.82
2022-07-30T04:41:52.374Z,23.94
2022-07-30T04:44:30.019Z,24.25
2022-07-30T04:47:17.523Z,24.23
2022-07-30T04:49:56.691Z,24.13
2022-07-30T04:52:25.231Z,23.98
2022-07-30T04:54:58.249Z,23.86
2022-07-30T04:57:26.852Z,23.73
2022-07-30T04:59:54.943Z,23.58
2022-07-30T05:02:24.056Z,23.46
2022-07-30T05:04:52.718Z,23.38
2022-07-30T05:07:22.394Z,23.34
2022-07-30T05:09:51.389Z,23.26
2022-07-30T05:12:19.304Z,23.15
2022-07-30T05:14:48.411Z,23.12
2022-07-30T05:17:16.807Z,23.10
2022-07-30T05:19:44.745Z,23.08
2022-07-30T05:22:16.460Z,23.03
2022-07-30T05:24:45.008Z,23.00
2022-07-30T05:27:13.122Z,22.97
2022-07-30T05:29:41.032Z,22.90
2022-07-30T05:32:13.771Z,22.80
2022-07-30T05:34:43.442Z,22.76
2022-07-30T05:37:18.210Z,22.73
2022-07-30T05:39:57.365Z,22.67
2022-07-30T05:42:58.851Z,22.60
2022-07-30T05:45:26.846Z,22.57
2022-07-30T05:47:54.720Z,22.55
2022-07-30T05:50:22.600Z,22.57
2022-07-30T05:52:50.618Z,22.55
2022-07-30T05:55:50.130Z,22.51
2022-07-30T05:58:36.896Z,22.46
2022-07-30T06:01:04.760Z,22.44
2022-07-30T06:03:33.969Z,22.41
2022-07-30T06:06:27.947Z,22.43
2022-07-30T06:08:55.749Z,22.46
2022-07-30T06:11:24.366Z,22.51
2022-07-30T06:13:52.299Z,22.54
2022-07-30T06:16:20.495Z,22.60
2022-07-30T06:18:48.429Z,22.66
2022-07-30T06:21:25.932Z,22.72
2022-07-30T06:24:04.928Z,22.77
2022-07-30T06:26:59.784Z,22.87
2022-07-30T06:29:28.298Z,22.97
2022-07-30T06:31:56.555Z,23.04
2022-07-30T06:34:25.188Z,23.06
2022-07-30T06:36:53.967Z,23.14
2022-07-30T06:39:56.160Z,23.27
2022-07-30T06:42:26.527Z,23.39
2022-07-30T06:45:17.427Z,23.47
2022-07-30T06:48:08.085Z,23.57
2022-07-30T06:50:37.182Z,23.66
2022-07-30T06:53:05.112Z,23.76
2022-07-30T06:55:53.026Z,23.79
2022-07-30T06:58:26.537Z,23.74
2022-07-30T07:01:17.506Z,23.67
2022-07-30T07:03:45.536Z,23.53
2022-07-30T07:06:13.545Z,23.37
2022-07-30T07:08:42.094Z,23.24
2022-07-30T07:11:10.580Z,23.13
2022-07-30T07:13:51.150Z,23.03
2022-07-30T07:16:25.942Z,23.00
2022-07-30T07:18:55.861Z,22.96
2022-07-30T07:21:24.434Z,22.92
2022-07-30T07:23:53.663Z,22.92
2022-07-30T07:26:40.081Z,22.97
2022-07-30T07:29:09.017Z,23.03
2022-07-30T07:32:05.641Z,23.07
2022-07-30T07:34:25.334Z,22.99
2022-07-30T07:36:54.119Z,22.88
2022-07-30T07:39:23.384Z,22.84
2022-07-30T07:41:51.440Z,22.82
2022-07-30T07:44:23.012Z,22.84
2022-07-30T07:46:50.921Z,22.88
2022-07-30T07:49:19.041Z,22.83
2022-07-30T07:51:50.226Z,22.69
2022-07-30T07:54:22.842Z,22.69
2022-07-30T07:56:53.341Z,22.85
2022-07-30T07:59:36.192Z,23.12
2022-07-30T08:02:10.925Z,23.46
2022-07-30T08:04:55.480Z,23.87
2022-07-30T08:07:39.531Z,24.45
2022-07-30T08:10:07.935Z,25.24
2022-07-30T08:12:54.145Z,25.78
2022-07-30T08:15:40.704Z,26.32
2022-07-30T08:18:35.794Z,26.99
2022-07-30T08:21:12.977Z,27.44
2022-07-30T08:23:42.686Z,27.74
2022-07-30T08:26:10.904Z,28.03
2022-07-30T08:28:38.998Z,28.33
2022-07-30T08:31:08.201Z,28.50
2022-07-30T08:33:36.068Z,28.68
2022-07-30T08:36:09.469Z,28.75
2022-07-30T08:38:39.123Z,28.87
2022-07-30T08:41:07.745Z,28.92
2022-07-30T08:43:36.668Z,28.77
2022-07-30T08:46:07.039Z,28.61
2022-07-30T08:48:43.268Z,28.52
2022-07-30T08:51:13.353Z,28.43
2022-07-30T08:53:44.245Z,28.26
2022-07-30T08:56:12.632Z,28.15
2022-07-30T08:58:41.733Z,28.12
2022-07-30T09:01:09.673Z,28.12
2022-07-30T09:03:44.036Z,28.03
2022-07-30T09:06:13.008Z,27.84
2022-07-30T09:08:42.958Z,27.68
2022-07-30T09:11:12.684Z,27.33
2022-07-30T09:13:42.954Z,27.14
2022-07-30T09:16:21.749Z,27.05
2022-07-30T09:18:50.641Z,26.85
2022-07-30T09:21:24.474Z,26.73
2022-07-30T09:24:07.118Z,26.78
2022-07-30T09:27:01.049Z,26.81
2022-07-30T09:30:02.094Z,26.87
2022-07-30T09:32:49.226Z,26.95
2022-07-30T09:35:35.908Z,27.12
2022-07-30T09:38:13.239Z,27.32
2022-07-30T09:40:57.824Z,27.60
2022-07-30T09:43:50.145Z,28.08
2022-07-30T09:47:01.428Z,28.81
2022-07-30T09:49:34.434Z,29.62
2022-07-30T09:52:02.694Z,30.51
2022-07-30T09:54:54.007Z,31.06
2022-07-30T09:57:27.471Z,31.23
2022-07-30T10:00:25.008Z,31.52
2022-07-30T10:03:32.933Z,31.86
2022-07-30T10:06:34.154Z,32.16
2022-07-30T10:09:14.011Z,32.48
2022-07-30T10:11:47.911Z,32.37
2022-07-30T10:14:15.952Z,32.17
2022-07-30T10:16:43.982Z,32.31
2022-07-30T10:19:18.083Z,32.29
2022-07-30T10:22:10.314Z,32.01
2022-07-30T10:24:58.492Z,31.65
2022-07-30T10:27:46.514Z,31.28
2022-07-30T10:30:29.333Z,31.08
2022-07-30T10:32:58.752Z,31.33
2022-07-30T10:35:34.160Z,31.68
2022-07-30T10:38:13.458Z,32.11
2022-07-30T10:40:48.531Z,32.59
2022-07-30T10:43:33.235Z,33.13
2022-07-30T10:46:20.116Z,33.70
2022-07-30T10:48:51.037Z,34.06
2022-07-30T10:51:34.384Z,34.18
2022-07-30T10:54:02.770Z,34.22
2022-07-30T10:56:30.804Z,34.49
2022-07-30T10:58:59.272Z,34.40
2022-07-30T11:01:51.485Z,34.16
2022-07-30T11:04:21.121Z,34.28
2022-07-30T11:07:17.270Z,34.49
2022-07-30T11:09:49.777Z,34.38
2022-07-30T11:12:44.126Z,34.34
2022-07-30T11:15:19.124Z,34.45
2022-07-30T11:18:04.641Z,34.46
2022-07-30T11:20:40.832Z,34.44
2022-07-30T11:23:28.804Z,33.91
2022-07-30T11:26:03.851Z,33.87
2022-07-30T11:28:36.924Z,33.97
2022-07-30T11:31:23.463Z,34.13
2022-07-30T11:34:20.561Z,34.44
2022-07-30T11:37:19.323Z,34.37
2022-07-30T11:39:58.122Z,33.24
2022-07-30T11:42:30.408Z,32.01
2022-07-30T11:45:16.296Z,31.61
2022-07-30T11:47:45.502Z,31.29
2022-07-30T11:50:19.966Z,31.08
2022-07-30T11:52:59.329Z,30.84
2022-07-30T11:55:30.345Z,30.50
2022-07-30T11:57:59.805Z,30.34
2022-07-30T12:00:37.799Z,30.24
2022-07-30T12:03:16.604Z,30.18
2022-07-30T12:05:45.468Z,30.09
2022-07-30T12:08:36.131Z,30.03
2022-07-30T12:11:04.229Z,29.95
2022-07-30T12:13:45.388Z,29.84
2022-07-30T12:16:17.565Z,29.74
2022-07-30T12:18:47.388Z,29.65
2022-07-30T12:21:18.936Z,29.59
2022-07-30T12:23:57.714Z,29.54
2022-07-30T12:26:27.224Z,29.44
2022-07-30T12:28:56.543Z,29.30
2022-07-30T12:31:24.732Z,29.16
2022-07-30T12:33:52.596Z,29.10
2022-07-30T12:36:25.445Z,29.01
2022-07-30T12:38:54.954Z,28.94
2022-07-30T12:41:22.954Z,28.89
2022-07-30T12:43:55.402Z,28.82
2022-07-30T12:46:25.451Z,28.62
2022-07-30T12:49:01.206Z,28.49
2022-07-30T12:51:51.445Z,28.44
2022-07-30T12:54:20.237Z,28.48
2022-07-30T12:56:59.708Z,28.53
2022-07-30T12:59:27.873Z,28.57
2022-07-30T13:01:57.812Z,28.40
2022-07-30T13:04:26.656Z,28.26
2022-07-30T13:07:05.225Z,28.20
2022-07-30T13:09:33.416Z,28.02
2022-07-30T13:12:01.223Z,28.11
2022-07-30T13:14:29.377Z,28.27
2022-07-30T13:16:58.433Z,28.51
2022-07-30T13:19:26.801Z,28.81
2022-07-30T13:21:54.606Z,29.17
2022-07-30T13:24:22.424Z,29.67
2022-07-30T13:26:50.884Z,30.25
2022-07-30T13:29:18.920Z,30.70
2022-07-30T13:31:46.803Z,31.14
2022-07-30T13:34:14.703Z,31.51
2022-07-30T13:36:43.243Z,31.72
2022-07-30T13:39:12.203Z,32.01
2022-07-30T13:41:42.021Z,32.19
2022-07-30T13:44:10.003Z,32.08
2022-07-30T13:46:40.559Z,32.08
2022-07-30T13:49:10.944Z,32.09
2022-07-30T13:51:39.356Z,31.90
2022-07-30T13:54:07.608Z,31.75
2022-07-30T13:56:40.824Z,31.46
2022-07-30T13:59:09.408Z,31.06
2022-07-30T14:01:38.480Z,30.64
2022-07-30T14:04:06.780Z,30.19
2022-07-30T14:06:34.691Z,30.17
2022-07-30T14:09:02.811Z,30.33
2022-07-30T14:11:31.588Z,30.39
2022-07-30T14:13:59.547Z,30.31
2022-07-30T14:19:23.434Z,29.50
2022-07-30T14:21:53.137Z,29.46
2022-07-30T14:24:22.222Z,29.55
2022-07-30T14:26:55.756Z,29.66
2022-07-30T14:29:28.529Z,29.62
2022-07-30T14:31:57.336Z,29.54
2022-07-30T14:34:25.196Z,29.49
2022-07-30T14:36:53.184Z,29.22
2022-07-30T14:39:21.396Z,28.98
2022-07-30T14:41:53.541Z,28.96
2022-07-30T14:44:23.846Z,28.91
2022-07-30T14:46:52.917Z,28.87
2022-07-30T14:49:21.790Z,28.79
2022-07-30T14:51:51.182Z,28.70
2022-07-30T14:54:19.815Z,28.52
2022-07-30T14:56:47.664Z,28.27
2022-07-30T14:59:16.077Z,28.03
2022-07-30T15:01:43.977Z,27.88
2022-07-30T15:04:12.725Z,27.81
2022-07-30T15:06:41.804Z,27.71
2022-07-30T15:09:09.848Z,27.58
2022-07-30T15:12:04.310Z,27.35
2022-07-30T15:14:28.478Z,27.04
2022-07-30T15:17:03.690Z,26.61
2022-07-30T15:19:32.689Z,26.24
2022-07-30T15:22:02.752Z,25.75
2022-07-30T15:24:31.423Z,25.27
2022-07-30T15:26:59.691Z,24.93
2022-07-30T15:29:30.316Z,24.69
2022-07-30T15:32:01.154Z,24.48
2022-07-30T15:34:34.271Z,24.27
2022-07-30T15:37:03.441Z,24.00
2022-07-30T15:39:33.109Z,23.68
2022-07-30T15:42:02.629Z,23.42
2022-07-30T15:44:30.757Z,23.19
2022-07-30T15:46:59.192Z,23.00
2022-07-30T15:49:28.095Z,22.83
2022-07-30T15:51:57.371Z,22.63
2022-07-30T15:54:25.313Z,22.50
2022-07-30T15:56:54.146Z,22.40
2022-07-30T15:59:30.459Z,22.30
2022-07-30T16:01:58.482Z,22.20
2022-07-30T16:04:31.948Z,22.13
2022-07-30T16:07:00.645Z,22.05
2022-07-30T16:09:28.529Z,21.96
2022-07-30T16:11:57.128Z,21.89
2022-07-30T16:14:27.277Z,21.83
2022-07-30T16:16:55.141Z,21.79
2022-07-30T16:19:23.183Z,21.77
2022-07-30T16:21:51.358Z,21.73
2022-07-30T16:24:19.172Z,21.75
2022-07-30T16:26:47.163Z,21.78
2022-07-30T16:29:15.009Z,21.81
2022-07-30T16:31:43.860Z,21.83
2022-07-30T16:34:11.816Z,21.90
2022-07-30T16:36:39.753Z,21.96
2022-07-30T16:39:08.202Z,22.04
2022-07-30T16:41:36.705Z,22.09
2022-07-30T16:44:04.696Z,22.13
2022-07-30T16:46:32.760Z,22.13
2022-07-30T16:49:00.908Z,22.04
2022-07-30T16:51:28.988Z,21.94
2022-07-30T16:53:56.970Z,21.84
2022-07-30T16:56:24.850Z,21.73
2022-07-30T16:58:53.434Z,21.61
2022-07-30T17:01:21.435Z,21.55
2022-07-30T17:03:49.368Z,21.53
2022-07-30T17:06:17.178Z,21.45
2022-07-30T17:08:45.253Z,21.28
2022-07-30T17:11:45.903Z,21.12
2022-07-30T17:14:04.277Z,21.07
2022-07-30T17:16:32.688Z,21.07
2022-07-30T17:19:00.579Z,21.11
2022-07-30T17:21:38.503Z,21.10
2022-07-30T17:24:11.404Z,21.11
2022-07-30T17:26:43.463Z,21.11
2022-07-30T17:29:14.841Z,21.10
2022-07-30T17:31:44.439Z,21.12
2022-07-30T17:34:14.115Z,21.15
2022-07-30T17:36:51.673Z,21.19
2022-07-30T17:40:27.114Z,21.22
2022-07-30T17:42:12.368Z,21.23
2022-07-30T17:44:41.365Z,21.13
2022-07-30T17:47:15.166Z,21.00
2022-07-30T17:49:44.376Z,21.02
2022-07-30T17:52:12.390Z,21.06
2022-07-30T17:54:40.150Z,21.04
2022-07-30T17:57:08.093Z,21.04
2022-07-30T17:59:36.388Z,21.11
2022-07-30T18:02:05.204Z,21.19
2022-07-30T18:04:34.355Z,21.26
2022-07-30T18:07:03.116Z,21.31
2022-07-30T18:09:37.790Z,21.31
2022-07-30T18:12:07.995Z,21.30
2022-07-30T18:14:35.800Z,21.27
2022-07-30T18:17:04.458Z,21.16
2022-07-30T18:19:32.444Z,21.09
2022-07-30T18:22:02.996Z,21.07
2022-07-30T18:24:31.040Z,21.03
2022-07-30T18:26:58.816Z,20.99
2022-07-30T18:29:26.631Z,21.00
2022-07-30T18:31:54.560Z,21.05
2022-07-30T18:34:22.359Z,21.10
2022-07-30T18:36:51.541Z,21.07
2022-07-30T18:39:19.367Z,21.01
2022-07-30T18:41:47.673Z,20.93
2022-07-30T18:44:15.648Z,20.80
2022-07-30T18:46:43.642Z,20.77
2022-07-30T18:49:35.008Z,20.81
2022-07-30T18:52:01.305Z,20.90
2022-07-30T18:54:30.698Z,20.89
2022-07-30T18:56:58.515Z,20.86
2022-07-30T18:59:26.310Z,20.83
2022-07-30T19:01:54.704Z,20.82
2022-07-30T19:04:22.717Z,20.83
2022-07-30T19:06:50.559Z,20.84
2022-07-30T19:09:18.861Z,20.78
2022-07-30T19:11:47.005Z,20.77
2022-07-30T19:14:15.312Z,20.80
2022-07-30T19:16:43.771Z,20.81
2022-07-30T19:19:13.722Z,20.79
2022-07-30T19:21:41.577Z,20.81
2022-07-30T19:24:10.134Z,20.85
2022-07-30T19:26:40.080Z,20.82
2022-07-30T19:29:08.147Z,20.76
2022-07-30T19:31:36.663Z,20.71
2022-07-30T19:34:05.060Z,20.64
2022-07-30T19:36:33.639Z,20.61
2022-07-30T19:41:51.078Z,20.48
2022-07-30T19:44:19.123Z,20.37
2022-07-30T19:46:51.427Z,20.27
2022-07-30T19:49:19.912Z,20.19
2022-07-30T19:52:10.390Z,20.15
2022-07-30T19:54:37.747Z,20.04
2022-07-30T19:57:05.784Z,19.95
2022-07-30T19:59:45.230Z,19.98
2022-07-30T20:02:15.832Z,20.02
2022-07-30T20:04:43.935Z,20.06
2022-07-30T20:07:11.958Z,20.11
2022-07-30T20:09:42.939Z,20.14
2022-07-30T20:12:11.611Z,20.22
2022-07-30T20:14:41.743Z,20.33
2022-07-30T20:17:11.772Z,20.45
2022-07-30T20:19:47.750Z,20.51
2022-07-30T20:22:17.085Z,20.49
2022-07-30T20:24:45.454Z,20.53
2022-07-30T20:27:36.204Z,20.55
2022-07-30T20:30:02.984Z,20.50
2022-07-30T20:32:30.984Z,20.45
2022-07-30T20:34:59.388Z,20.42
2022-07-30T20:37:27.773Z,20.40
2022-07-30T20:39:55.958Z,20.36
2022-07-30T20:42:24.627Z,20.36
2022-07-30T20:44:57.008Z,20.37
2022-07-30T20:47:34.398Z,20.38
2022-07-30T20:50:14.675Z,20.35
2022-07-30T20:52:46.776Z,20.36
2022-07-30T20:55:16.871Z,20.37
2022-07-30T20:57:57.215Z,20.38
2022-07-30T21:00:31.652Z,20.38
2022-07-30T21:03:03.308Z,20.37
2022-07-30T21:05:31.637Z,20.37
2022-07-30T21:08:00.801Z,20.37
2022-07-30T21:10:29.008Z,20.36
2022-07-30T21:16:01.583Z,20.37
2022-07-30T21:18:32.788Z,20.39
2022-07-30T21:21:01.554Z,20.38
2022-07-30T21:23:33.536Z,20.37
2022-07-30T21:26:05.947Z,20.36
2022-07-30T21:28:38.712Z,20.35
2022-07-30T21:31:08.705Z,20.36
2022-07-30T21:33:37.535Z,20.37
2022-07-30T21:36:10.478Z,20.36
2022-07-30T21:38:42.734Z,20.33
2022-07-30T21:41:14.448Z,20.31
2022-07-30T21:43:43.998Z,20.25
2022-07-30T21:46:12.307Z,20.24
2022-07-30T21:48:40.946Z,20.23
2022-07-30T21:51:10.008Z,20.16
2022-07-30T21:53:46.091Z,20.13
2022-07-30T21:56:15.149Z,20.15
2022-07-30T21:58:44.611Z,20.13
2022-07-30T22:01:16.350Z,20.07
2022-07-30T22:04:03.016Z,19.99
2022-07-30T22:06:41.727Z,19.88
2022-07-30T22:09:18.995Z,19.83
2022-07-30T22:14:48.726Z,19.83
2022-07-30T22:17:23.757Z,19.81
2022-07-30T22:20:04.954Z,19.82
2022-07-30T22:22:37.743Z,19.87
2022-07-30T22:25:09.750Z,19.89
2022-07-30T22:27:40.031Z,19.92
2022-07-30T22:30:27.719Z,19.96
2022-07-30T22:32:55.869Z,19.98
2022-07-30T22:35:33.603Z,20.03
2022-07-30T22:38:05.685Z,20.08
2022-07-30T22:40:34.179Z,20.06
2022-07-30T22:43:04.281Z,20.00
2022-07-30T22:45:48.196Z,19.94
2022-07-30T22:48:17.382Z,19.89
2022-07-30T22:50:48.564Z,19.87
2022-07-30T22:54:02.431Z,19.88
2022-07-30T22:56:14.028Z,19.91
2022-07-30T22:58:44.098Z,19.89
2022-07-30T23:01:11.920Z,19.87
2022-07-30T23:03:42.076Z,19.89
2022-07-30T23:06:14.751Z,19.91
2022-07-30T23:08:44.525Z,19.94
2022-07-30T23:11:12.503Z,19.95
2022-07-30T23:12:14.798Z,20.56
2022-07-30T23:12:28.379Z,19.82
2022-07-30T23:12:31.755Z,20.37
2022-07-30T23:13:40.633Z,19.95
2022-07-30T23:16:08.641Z,19.95
2022-07-30T23:18:36.544Z,19.96
2022-07-30T23:21:05.089Z,19.98
2022-07-30T23:23:34.142Z,20.01
2022-07-30T23:26:05.670Z,20.04
2022-07-30T23:28:33.464Z,20.06
2022-07-30T23:31:01.456Z,20.07
2022-07-30T23:33:30.594Z,20.14
2022-07-30T23:36:00.422Z,20.15
2022-07-30T23:38:29.244Z,20.07
2022-07-30T23:41:01.439Z,19.95
2022-07-30T23:43:30.060Z,19.78
2022-07-30T23:45:57.838Z,19.64
2022-07-30T23:48:25.791Z,19.47
2022-07-30T23:50:54.079Z,19.39
2022-07-30T23:53:22.078Z,19.48
2022-07-30T23:55:50.872Z,19.58
2022-07-30T23:58:18.814Z,19.63
